Time;durP1;ratioP1;P1;durP2;ratioP2;P2;SDS_P1;SDS_P2;PMS_P1;PMS_P2;Temp;Humidity;BMP_temperature;BMP_pressure;BME280_temperature;BME280_humidity;BME280_pressure;Samples;Min_cycle;Max_cycle;Signal;HPM_P1;HPM_P2
2020/01/24 00:00:30;;;;;;;68.35001;28.65;;;;;;;-0.22;85.33887;96004.14;;;;
2020/01/24 00:02:12;;;;;;;66.35001;28;;;;;;;-0.33;85.34082;95998.58;;;;
2020/01/24 00:03:23;;;;;;;66.35001;28;;;;;;;-0.33;85.34082;95998.58;;;;
2020/01/24 00:04:24;;;;;;;66.35001;28;;;;;;;-0.33;85.34082;95998.58;;;;
2020/01/24 00:05:35;;;;;;;66.35001;28;;;;;;;-0.33;85.34082;95998.58;;;;
2020/01/24 00:06:36;;;;;;;66.35001;28;;;;;;;-0.33;85.34082;95998.58;;;;
2020/01/24 00:07:37;;;;;;;66.35001;28;;;;;;;-0.33;85.34082;95998.58;;;;
2020/01/24 00:08:44;;;;;;;66.35001;28;;;;;;;-0.33;85.34082;95998.58;;;;
2020/01/24 00:09:47;;;;;;;66.35001;28;;;;;;;-0.33;85.34082;95998.58;;;;
2020/01/24 00:11:09;;;;;;;66.35001;28;;;;;;;-0.33;85.34082;95998.58;;;;
2020/01/24 00:12:40;;;;;;;67.15;28.4;;;;;;;-0.33;85.56934;95997.25;;;;
2020/01/24 00:13:45;;;;;;;67.15;28.4;;;;;;;-0.33;85.56934;95997.25;;;;
2020/01/24 00:14:45;;;;;;;67.15;28.4;;;;;;;-0.33;85.56934;95997.25;;;;
2020/01/24 00:15:50;;;;;;;67.15;28.4;;;;;;;-0.33;85.56934;95997.25;;;;
2020/01/24 00:17:29;;;;;;;67.15;28.4;;;;;;;-0.33;85.56934;95997.25;;;;
2020/01/24 00:22:47;;;;;;;57.35;26;;;;;;;-0.4;85.73145;95982.51;;;;
2020/01/24 00:23:49;;;;;;;57.35;26;;;;;;;-0.4;85.73145;95982.51;;;;
2020/01/24 00:25:01;;;;;;;57.35;26;;;;;;;-0.4;85.73145;95982.51;;;;
2020/01/24 00:26:01;;;;;;;57.35;26;;;;;;;-0.4;85.73145;95982.51;;;;
2020/01/24 00:27:02;;;;;;;57.35;26;;;;;;;-0.4;85.73145;95982.51;;;;
2020/01/24 00:28:07;;;;;;;57.35;26;;;;;;;-0.4;85.73145;95982.51;;;;
2020/01/24 00:29:26;;;;;;;57.35;26;;;;;;;-0.4;85.73145;95982.51;;;;
2020/01/24 00:30:33;;;;;;;57.35;26;;;;;;;-0.4;85.73145;95982.51;;;;
2020/01/24 00:31:36;;;;;;;57.35;26;;;;;;;-0.4;85.73145;95982.51;;;;
2020/01/24 00:32:37;;;;;;;57.35;26;;;;;;;-0.4;85.73145;95982.51;;;;
2020/01/24 00:33:45;;;;;;;57.45;24.9;;;;;;;-0.44;85.80664;95989.51;;;;
2020/01/24 00:34:47;;;;;;;57.45;24.9;;;;;;;-0.44;85.80664;95989.51;;;;
2020/01/24 00:35:47;;;;;;;57.45;24.9;;;;;;;-0.44;85.80664;95989.51;;;;
2020/01/24 00:36:49;;;;;;;57.45;24.9;;;;;;;-0.44;85.80664;95989.51;;;;
2020/01/24 00:38:07;;;;;;;57.45;24.9;;;;;;;-0.44;85.80664;95989.51;;;;
2020/01/24 00:39:29;;;;;;;57.45;24.9;;;;;;;-0.44;85.80664;95989.51;;;;
2020/01/24 00:40:33;;;;;;;57.45;24.9;;;;;;;-0.44;85.80664;95989.51;;;;
2020/01/24 00:41:53;;;;;;;57.45;24.9;;;;;;;-0.44;85.80664;95989.51;;;;
2020/01/24 00:42:53;;;;;;;57.45;24.9;;;;;;;-0.44;85.80664;95989.51;;;;
2020/01/24 00:43:54;;;;;;;53.35;25.15;;;;;;;-0.55;85.77344;95980.88;;;;
2020/01/24 00:44:55;;;;;;;53.35;25.15;;;;;;;-0.55;85.77344;95980.88;;;;
2020/01/24 00:45:56;;;;;;;53.35;25.15;;;;;;;-0.55;85.77344;95980.88;;;;
2020/01/24 00:47:12;;;;;;;53.35;25.15;;;;;;;-0.55;85.77344;95980.88;;;;
2020/01/24 00:48:12;;;;;;;53.35;25.15;;;;;;;-0.55;85.77344;95980.88;;;;
2020/01/24 00:49:12;;;;;;;53.35;25.15;;;;;;;-0.55;85.77344;95980.88;;;;
2020/01/24 00:50:13;;;;;;;53.35;25.15;;;;;;;-0.55;85.77344;95980.88;;;;
2020/01/24 00:51:13;;;;;;;53.35;25.15;;;;;;;-0.55;85.77344;95980.88;;;;
2020/01/24 00:52:16;;;;;;;53.35;25.15;;;;;;;-0.55;85.77344;95980.88;;;;
2020/01/24 00:53:17;;;;;;;53.35;25.15;;;;;;;-0.55;85.77344;95980.88;;;;
2020/01/24 00:54:17;;;;;;;53.35;25.15;;;;;;;-0.55;85.77344;95980.88;;;;
2020/01/24 00:55:18;;;;;;;56.3;26.05;;;;;;;-0.6;86.09668;95973.88;;;;
2020/01/24 00:56:18;;;;;;;56.3;26.05;;;;;;;-0.6;86.09668;95973.88;;;;
2020/01/24 00:57:19;;;;;;;56.3;26.05;;;;;;;-0.6;86.09668;95973.88;;;;
2020/01/24 00:58:20;;;;;;;56.3;26.05;;;;;;;-0.6;86.09668;95973.88;;;;
2020/01/24 00:59:20;;;;;;;56.3;26.05;;;;;;;-0.6;86.09668;95973.88;;;;
2020/01/24 01:00:21;;;;;;;56.3;26.05;;;;;;;-0.6;86.09668;95973.88;;;;
2020/01/24 01:01:59;;;;;;;56.3;26.05;;;;;;;-0.6;86.09668;95973.88;;;;
2020/01/24 01:03:20;;;;;;;56.3;26.05;;;;;;;-0.6;86.09668;95973.88;;;;
2020/01/24 01:08:41;;;;;;;55.6;27;;;;;;;-0.69;86.07715;95959.36;;;;
2020/01/24 01:09:43;;;;;;;55.6;27;;;;;;;-0.69;86.07715;95959.36;;;;
2020/01/24 01:11:05;;;;;;;55.6;27;;;;;;;-0.69;86.07715;95959.36;;;;
2020/01/24 01:12:06;;;;;;;55.6;27;;;;;;;-0.69;86.07715;95959.36;;;;
2020/01/24 01:13:09;;;;;;;55.6;27;;;;;;;-0.69;86.07715;95959.36;;;;
2020/01/24 01:14:23;;;;;;;55.6;27;;;;;;;-0.69;86.07715;95959.36;;;;
2020/01/24 01:15:23;;;;;;;55.6;27;;;;;;;-0.69;86.07715;95959.36;;;;
2020/01/24 01:16:24;;;;;;;53.5;25;;;;;;;-0.73;86.23438;95953.1;;;;
2020/01/24 01:17:24;;;;;;;53.5;25;;;;;;;-0.73;86.23438;95953.1;;;;
2020/01/24 01:18:29;;;;;;;53.5;25;;;;;;;-0.73;86.23438;95953.1;;;;
2020/01/24 01:19:35;;;;;;;53.5;25;;;;;;;-0.73;86.23438;95953.1;;;;
2020/01/24 01:20:39;;;;;;;53.5;25;;;;;;;-0.73;86.23438;95953.1;;;;
2020/01/24 01:21:40;;;;;;;53.5;25;;;;;;;-0.73;86.23438;95953.1;;;;
2020/01/24 01:22:43;;;;;;;53.5;25;;;;;;;-0.73;86.23438;95953.1;;;;
2020/01/24 01:23:44;;;;;;;53.5;25;;;;;;;-0.73;86.23438;95953.1;;;;
2020/01/24 01:24:44;;;;;;;53.5;25;;;;;;;-0.73;86.23438;95953.1;;;;
2020/01/24 01:25:52;;;;;;;53.5;25;;;;;;;-0.73;86.23438;95953.1;;;;
2020/01/24 01:26:53;;;;;;;51.5;24.1;;;;;;;-0.89;86.31543;95945.47;;;;
2020/01/24 01:27:56;;;;;;;51.5;24.1;;;;;;;-0.89;86.31543;95945.47;;;;
2020/01/24 01:29:04;;;;;;;51.5;24.1;;;;;;;-0.89;86.31543;95945.47;;;;
2020/01/24 01:30:23;;;;;;;51.5;24.1;;;;;;;-0.89;86.31543;95945.47;;;;
2020/01/24 01:31:23;;;;;;;51.5;24.1;;;;;;;-0.89;86.31543;95945.47;;;;
2020/01/24 01:32:27;;;;;;;51.5;24.1;;;;;;;-0.89;86.31543;95945.47;;;;
2020/01/24 01:33:37;;;;;;;51.5;24.1;;;;;;;-0.89;86.31543;95945.47;;;;
2020/01/24 01:35:02;;;;;;;51.5;24.1;;;;;;;-0.89;86.31543;95945.47;;;;
2020/01/24 01:36:31;;;;;;;51.5;24.1;;;;;;;-0.89;86.31543;95945.47;;;;
2020/01/24 01:37:38;;;;;;;52.94999;24.05;;;;;;;-1;86.77246;95954.89;;;;
2020/01/24 01:38:39;;;;;;;52.94999;24.05;;;;;;;-1;86.77246;95954.89;;;;
2020/01/24 01:39:45;;;;;;;52.94999;24.05;;;;;;;-1;86.77246;95954.89;;;;
2020/01/24 01:40:45;;;;;;;52.94999;24.05;;;;;;;-1;86.77246;95954.89;;;;
2020/01/24 01:41:50;;;;;;;52.94999;24.05;;;;;;;-1;86.77246;95954.89;;;;
2020/01/24 01:42:51;;;;;;;52.94999;24.05;;;;;;;-1;86.77246;95954.89;;;;
2020/01/24 01:43:57;;;;;;;52.94999;24.05;;;;;;;-1;86.77246;95954.89;;;;
2020/01/24 01:44:57;;;;;;;52.94999;24.05;;;;;;;-1;86.77246;95954.89;;;;
2020/01/24 01:45:58;;;;;;;52.94999;24.05;;;;;;;-1;86.77246;95954.89;;;;
2020/01/24 01:47:24;;;;;;;52.94999;24.05;;;;;;;-1;86.77246;95954.89;;;;
2020/01/24 01:48:32;;;;;;;50.5;25;;;;;;;-1.16;86.58398;95953.39;;;;
2020/01/24 01:49:38;;;;;;;50.5;25;;;;;;;-1.16;86.58398;95953.39;;;;
2020/01/24 01:50:38;;;;;;;50.5;25;;;;;;;-1.16;86.58398;95953.39;;;;
2020/01/24 01:51:39;;;;;;;50.5;25;;;;;;;-1.16;86.58398;95953.39;;;;
2020/01/24 01:52:47;;;;;;;50.5;25;;;;;;;-1.16;86.58398;95953.39;;;;
2020/01/24 01:53:48;;;;;;;50.5;25;;;;;;;-1.16;86.58398;95953.39;;;;
2020/01/24 01:55:16;;;;;;;50.5;25;;;;;;;-1.16;86.58398;95953.39;;;;
2020/01/24 01:56:21;;;;;;;50.5;25;;;;;;;-1.16;86.58398;95953.39;;;;
2020/01/24 01:57:30;;;;;;;50.5;25;;;;;;;-1.16;86.58398;95953.39;;;;
2020/01/24 01:58:31;;;;;;;51.1;23.7;;;;;;;-1.25;86.6709;95949.41;;;;
2020/01/24 01:59:36;;;;;;;51.1;23.7;;;;;;;-1.25;86.6709;95949.41;;;;
2020/01/24 02:00:38;;;;;;;51.1;23.7;;;;;;;-1.25;86.6709;95949.41;;;;
2020/01/24 02:02:55;;;;;;;51.1;23.7;;;;;;;-1.25;86.6709;95949.41;;;;
2020/01/24 02:03:56;;;;;;;51.1;23.7;;;;;;;-1.25;86.6709;95949.41;;;;
2020/01/24 02:05:22;;;;;;;51.1;23.7;;;;;;;-1.25;86.6709;95949.41;;;;
2020/01/24 02:06:27;;;;;;;51.1;23.7;;;;;;;-1.25;86.6709;95949.41;;;;
2020/01/24 02:07:33;;;;;;;51.1;23.7;;;;;;;-1.25;86.6709;95949.41;;;;
2020/01/24 02:08:40;;;;;;;49.3;23.5;;;;;;;-1.4;86.69141;95946.47;;;;
2020/01/24 02:09:41;;;;;;;49.3;23.5;;;;;;;-1.4;86.69141;95946.47;;;;
2020/01/24 02:10:57;;;;;;;49.3;23.5;;;;;;;-1.4;86.69141;95946.47;;;;
2020/01/24 02:12:18;;;;;;;49.3;23.5;;;;;;;-1.4;86.69141;95946.47;;;;
2020/01/24 02:13:23;;;;;;;49.3;23.5;;;;;;;-1.4;86.69141;95946.47;;;;
2020/01/24 02:14:30;;;;;;;49.3;23.5;;;;;;;-1.4;86.69141;95946.47;;;;
2020/01/24 02:15:31;;;;;;;49.3;23.5;;;;;;;-1.4;86.69141;95946.47;;;;
2020/01/24 02:16:34;;;;;;;49.3;23.5;;;;;;;-1.4;86.69141;95946.47;;;;
2020/01/24 02:17:36;;;;;;;49.3;23.5;;;;;;;-1.4;86.69141;95946.47;;;;
2020/01/24 02:18:49;;;;;;;49.3;23.5;;;;;;;-1.4;86.69141;95946.47;;;;
2020/01/24 02:19:50;;;;;;;45.75;22.65;;;;;;;-1.46;86.88574;95951.05;;;;
2020/01/24 02:20:54;;;;;;;45.75;22.65;;;;;;;-1.46;86.88574;95951.05;;;;
2020/01/24 02:22:05;;;;;;;45.75;22.65;;;;;;;-1.46;86.88574;95951.05;;;;
2020/01/24 02:23:09;;;;;;;45.75;22.65;;;;;;;-1.46;86.88574;95951.05;;;;
2020/01/24 02:24:11;;;;;;;45.75;22.65;;;;;;;-1.46;86.88574;95951.05;;;;
2020/01/24 02:25:34;;;;;;;45.75;22.65;;;;;;;-1.46;86.88574;95951.05;;;;
2020/01/24 02:27:00;;;;;;;45.75;22.65;;;;;;;-1.46;86.88574;95951.05;;;;
2020/01/24 02:28:07;;;;;;;45.75;22.65;;;;;;;-1.46;86.88574;95951.05;;;;
2020/01/24 02:29:10;;;;;;;45.75;22.65;;;;;;;-1.46;86.88574;95951.05;;;;
2020/01/24 02:30:15;;;;;;;43.74999;21.7;;;;;;;-1.63;86.9248;95939.4;;;;
2020/01/24 02:31:27;;;;;;;43.74999;21.7;;;;;;;-1.63;86.9248;95939.4;;;;
2020/01/24 02:32:27;;;;;;;43.74999;21.7;;;;;;;-1.63;86.9248;95939.4;;;;
2020/01/24 02:33:29;;;;;;;43.74999;21.7;;;;;;;-1.63;86.9248;95939.4;;;;
2020/01/24 02:34:34;;;;;;;43.74999;21.7;;;;;;;-1.63;86.9248;95939.4;;;;
2020/01/24 02:35:34;;;;;;;43.74999;21.7;;;;;;;-1.63;86.9248;95939.4;;;;
2020/01/24 02:36:35;;;;;;;43.74999;21.7;;;;;;;-1.63;86.9248;95939.4;;;;
2020/01/24 02:37:35;;;;;;;43.74999;21.7;;;;;;;-1.63;86.9248;95939.4;;;;
2020/01/24 02:38:49;;;;;;;43.74999;21.7;;;;;;;-1.63;86.9248;95939.4;;;;
2020/01/24 02:39:51;;;;;;;43.74999;21.7;;;;;;;-1.63;86.9248;95939.4;;;;
2020/01/24 02:41:01;;;;;;;42.90001;21.15;;;;;;;-1.76;87.20898;95929.64;;;;
2020/01/24 02:42:01;;;;;;;42.90001;21.15;;;;;;;-1.76;87.20898;95929.64;;;;
2020/01/24 02:43:02;;;;;;;42.90001;21.15;;;;;;;-1.76;87.20898;95929.64;;;;
2020/01/24 02:44:04;;;;;;;42.90001;21.15;;;;;;;-1.76;87.20898;95929.64;;;;
2020/01/24 02:45:05;;;;;;;42.90001;21.15;;;;;;;-1.76;87.20898;95929.64;;;;
2020/01/24 02:46:06;;;;;;;42.90001;21.15;;;;;;;-1.76;87.20898;95929.64;;;;
2020/01/24 02:47:06;;;;;;;42.90001;21.15;;;;;;;-1.76;87.20898;95929.64;;;;
2020/01/24 02:48:07;;;;;;;42.90001;21.15;;;;;;;-1.76;87.20898;95929.64;;;;
2020/01/24 02:49:07;;;;;;;42.90001;21.15;;;;;;;-1.76;87.20898;95929.64;;;;
2020/01/24 02:50:08;;;;;;;42.90001;21.15;;;;;;;-1.76;87.20898;95929.64;;;;
2020/01/24 02:51:08;;;;;;;46.25001;22.1;;;;;;;-1.98;87.22461;95915.05;;;;
2020/01/24 02:52:09;;;;;;;46.25001;22.1;;;;;;;-1.98;87.22461;95915.05;;;;
2020/01/24 02:53:09;;;;;;;46.25001;22.1;;;;;;;-1.98;87.22461;95915.05;;;;
2020/01/24 02:54:10;;;;;;;46.25001;22.1;;;;;;;-1.98;87.22461;95915.05;;;;
2020/01/24 02:55:10;;;;;;;46.25001;22.1;;;;;;;-1.98;87.22461;95915.05;;;;
2020/01/24 02:56:11;;;;;;;46.25001;22.1;;;;;;;-1.98;87.22461;95915.05;;;;
2020/01/24 02:57:11;;;;;;;46.25001;22.1;;;;;;;-1.98;87.22461;95915.05;;;;
2020/01/24 02:58:19;;;;;;;46.25001;22.1;;;;;;;-1.98;87.22461;95915.05;;;;
2020/01/24 02:59:28;;;;;;;46.25001;22.1;;;;;;;-1.98;87.22461;95915.05;;;;
2020/01/24 03:00:29;;;;;;;46.25001;22.1;;;;;;;-1.98;87.22461;95915.05;;;;
2020/01/24 03:02:39;;;;;;;46.25001;22.1;;;;;;;-1.98;87.22461;95915.05;;;;
2020/01/24 03:03:46;;;;;;;46.25001;22.1;;;;;;;-1.98;87.22461;95915.05;;;;
2020/01/24 03:04:47;;;;;;;46.25001;22.1;;;;;;;-1.98;87.22461;95915.05;;;;
2020/01/24 03:05:47;;;;;;;46.25001;22.1;;;;;;;-1.98;87.22461;95915.05;;;;
2020/01/24 03:06:57;;;;;;;46.25001;22.1;;;;;;;-1.98;87.22461;95915.05;;;;
2020/01/24 03:08:12;;;;;;;46.25001;22.1;;;;;;;-1.98;87.22461;95915.05;;;;
2020/01/24 03:09:34;;;;;;;46.25001;22.1;;;;;;;-1.98;87.22461;95915.05;;;;
2020/01/24 03:10:55;;;;;;;46.25001;22.1;;;;;;;-1.98;87.22461;95915.05;;;;
2020/01/24 03:11:56;;;;;;;46.25001;22.1;;;;;;;-1.98;87.22461;95915.05;;;;
2020/01/24 03:12:57;;;;;;;44.85;21.3;;;;;;;-2.17;87.12402;95890.8;;;;
2020/01/24 03:14:01;;;;;;;44.85;21.3;;;;;;;-2.17;87.12402;95890.8;;;;
2020/01/24 03:15:01;;;;;;;44.85;21.3;;;;;;;-2.17;87.12402;95890.8;;;;
2020/01/24 03:16:02;;;;;;;44.85;21.3;;;;;;;-2.17;87.12402;95890.8;;;;
2020/01/24 03:17:03;;;;;;;44.85;21.3;;;;;;;-2.17;87.12402;95890.8;;;;
2020/01/24 03:18:03;;;;;;;44.85;21.3;;;;;;;-2.17;87.12402;95890.8;;;;
2020/01/24 03:19:04;;;;;;;44.85;21.3;;;;;;;-2.17;87.12402;95890.8;;;;
2020/01/24 03:20:05;;;;;;;44.85;21.3;;;;;;;-2.17;87.12402;95890.8;;;;
2020/01/24 03:21:05;;;;;;;44.85;21.3;;;;;;;-2.17;87.12402;95890.8;;;;
2020/01/24 03:22:06;;;;;;;44.85;21.3;;;;;;;-2.17;87.12402;95890.8;;;;
2020/01/24 03:23:10;;;;;;;43.35001;20.4;;;;;;;-2.27;87.40234;95890.06;;;;
2020/01/24 03:24:10;;;;;;;43.35001;20.4;;;;;;;-2.27;87.40234;95890.06;;;;
2020/01/24 03:25:11;;;;;;;43.35001;20.4;;;;;;;-2.27;87.40234;95890.06;;;;
2020/01/24 03:26:16;;;;;;;43.35001;20.4;;;;;;;-2.27;87.40234;95890.06;;;;
2020/01/24 03:27:17;;;;;;;43.35001;20.4;;;;;;;-2.27;87.40234;95890.06;;;;
2020/01/24 03:28:17;;;;;;;43.35001;20.4;;;;;;;-2.27;87.40234;95890.06;;;;
2020/01/24 03:29:18;;;;;;;43.35001;20.4;;;;;;;-2.27;87.40234;95890.06;;;;
2020/01/24 03:30:46;;;;;;;43.35001;20.4;;;;;;;-2.27;87.40234;95890.06;;;;
2020/01/24 03:31:53;;;;;;;43.35001;20.4;;;;;;;-2.27;87.40234;95890.06;;;;
2020/01/24 03:33:37;;;;;;;43.35001;20.4;;;;;;;-2.27;87.40234;95890.06;;;;
2020/01/24 03:34:42;;;;;;;44.15;20.05;;;;;;;-2.36;87.33203;95887.38;;;;
2020/01/24 03:35:47;;;;;;;44.15;20.05;;;;;;;-2.36;87.33203;95887.38;;;;
2020/01/24 03:36:48;;;;;;;44.15;20.05;;;;;;;-2.36;87.33203;95887.38;;;;
2020/01/24 03:37:48;;;;;;;44.15;20.05;;;;;;;-2.36;87.33203;95887.38;;;;
2020/01/24 03:38:49;;;;;;;44.15;20.05;;;;;;;-2.36;87.33203;95887.38;;;;
2020/01/24 03:39:50;;;;;;;44.15;20.05;;;;;;;-2.36;87.33203;95887.38;;;;
2020/01/24 03:40:50;;;;;;;44.15;20.05;;;;;;;-2.36;87.33203;95887.38;;;;
2020/01/24 03:41:51;;;;;;;44.15;20.05;;;;;;;-2.36;87.33203;95887.38;;;;
2020/01/24 03:42:52;;;;;;;44.15;20.05;;;;;;;-2.36;87.33203;95887.38;;;;
2020/01/24 03:43:52;;;;;;;44.15;20.05;;;;;;;-2.36;87.33203;95887.38;;;;
2020/01/24 03:44:53;;;;;;;46.85;21.6;;;;;;;-2.34;87.47168;95895.48;;;;
2020/01/24 03:45:54;;;;;;;46.85;21.6;;;;;;;-2.34;87.47168;95895.48;;;;
2020/01/24 03:46:54;;;;;;;46.85;21.6;;;;;;;-2.34;87.47168;95895.48;;;;
2020/01/24 03:47:55;;;;;;;46.85;21.6;;;;;;;-2.34;87.47168;95895.48;;;;
2020/01/24 03:48:59;;;;;;;46.85;21.6;;;;;;;-2.34;87.47168;95895.48;;;;
2020/01/24 03:50:00;;;;;;;46.85;21.6;;;;;;;-2.34;87.47168;95895.48;;;;
2020/01/24 03:51:10;;;;;;;46.85;21.6;;;;;;;-2.34;87.47168;95895.48;;;;
2020/01/24 03:52:13;;;;;;;46.85;21.6;;;;;;;-2.34;87.47168;95895.48;;;;
2020/01/24 03:53:14;;;;;;;46.85;21.6;;;;;;;-2.34;87.47168;95895.48;;;;
2020/01/24 03:54:15;;;;;;;46.85;21.6;;;;;;;-2.34;87.47168;95895.48;;;;
2020/01/24 03:55:16;;;;;;;47.95;20.45;;;;;;;-2.36;87.33301;95903.66;;;;
2020/01/24 03:56:20;;;;;;;47.95;20.45;;;;;;;-2.36;87.33301;95903.66;;;;
2020/01/24 03:57:22;;;;;;;47.95;20.45;;;;;;;-2.36;87.33301;95903.66;;;;
2020/01/24 03:58:23;;;;;;;47.95;20.45;;;;;;;-2.36;87.33301;95903.66;;;;
2020/01/24 03:59:24;;;;;;;47.95;20.45;;;;;;;-2.36;87.33301;95903.66;;;;
2020/01/24 04:00:24;;;;;;;47.95;20.45;;;;;;;-2.36;87.33301;95903.66;;;;
2020/01/24 04:01:36;;;;;;;47.95;20.45;;;;;;;-2.36;87.33301;95903.66;;;;
2020/01/24 04:02:37;;;;;;;47.95;20.45;;;;;;;-2.36;87.33301;95903.66;;;;
2020/01/24 04:03:38;;;;;;;47.95;20.45;;;;;;;-2.36;87.33301;95903.66;;;;
2020/01/24 04:04:38;;;;;;;47.95;20.45;;;;;;;-2.36;87.33301;95903.66;;;;
2020/01/24 04:05:39;;;;;;;47.54999;20.85;;;;;;;-2.34;87.66797;95891.13;;;;
2020/01/24 04:06:39;;;;;;;47.54999;20.85;;;;;;;-2.34;87.66797;95891.13;;;;
2020/01/24 04:07:40;;;;;;;47.54999;20.85;;;;;;;-2.34;87.66797;95891.13;;;;
2020/01/24 04:08:40;;;;;;;47.54999;20.85;;;;;;;-2.34;87.66797;95891.13;;;;
2020/01/24 04:09:41;;;;;;;47.54999;20.85;;;;;;;-2.34;87.66797;95891.13;;;;
2020/01/24 04:10:41;;;;;;;47.54999;20.85;;;;;;;-2.34;87.66797;95891.13;;;;
2020/01/24 04:11:42;;;;;;;47.54999;20.85;;;;;;;-2.34;87.66797;95891.13;;;;
2020/01/24 04:12:42;;;;;;;47.54999;20.85;;;;;;;-2.34;87.66797;95891.13;;;;
2020/01/24 04:13:43;;;;;;;47.54999;20.85;;;;;;;-2.34;87.66797;95891.13;;;;
2020/01/24 04:14:43;;;;;;;47.54999;20.85;;;;;;;-2.34;87.66797;95891.13;;;;
2020/01/24 04:15:44;;;;;;;47.54999;20.85;;;;;;;-2.34;87.66797;95891.13;;;;
2020/01/24 04:17:21;;;;;;;48.90001;21.45;;;;;;;-2.4;87.4375;95887.31;;;;
2020/01/24 04:18:23;;;;;;;48.90001;21.45;;;;;;;-2.4;87.4375;95887.31;;;;
2020/01/24 04:19:30;;;;;;;48.90001;21.45;;;;;;;-2.4;87.4375;95887.31;;;;
2020/01/24 04:20:31;;;;;;;48.90001;21.45;;;;;;;-2.4;87.4375;95887.31;;;;
2020/01/24 04:21:32;;;;;;;48.90001;21.45;;;;;;;-2.4;87.4375;95887.31;;;;
2020/01/24 04:22:33;;;;;;;48.90001;21.45;;;;;;;-2.4;87.4375;95887.31;;;;
2020/01/24 04:23:34;;;;;;;48.90001;21.45;;;;;;;-2.4;87.4375;95887.31;;;;
2020/01/24 04:24:34;;;;;;;48.90001;21.45;;;;;;;-2.4;87.4375;95887.31;;;;
2020/01/24 04:25:35;;;;;;;48.90001;21.45;;;;;;;-2.4;87.4375;95887.31;;;;
2020/01/24 04:26:37;;;;;;;48.90001;21.45;;;;;;;-2.4;87.4375;95887.31;;;;
2020/01/24 04:27:38;;;;;;;45;19.75;;;;;;;-2.46;87.66406;95879.03;;;;
2020/01/24 04:28:38;;;;;;;45;19.75;;;;;;;-2.46;87.66406;95879.03;;;;
2020/01/24 04:29:39;;;;;;;45;19.75;;;;;;;-2.46;87.66406;95879.03;;;;
2020/01/24 04:30:40;;;;;;;45;19.75;;;;;;;-2.46;87.66406;95879.03;;;;
2020/01/24 04:31:42;;;;;;;45;19.75;;;;;;;-2.46;87.66406;95879.03;;;;
2020/01/24 04:32:43;;;;;;;45;19.75;;;;;;;-2.46;87.66406;95879.03;;;;
2020/01/24 04:33:44;;;;;;;45;19.75;;;;;;;-2.46;87.66406;95879.03;;;;
2020/01/24 04:34:44;;;;;;;45;19.75;;;;;;;-2.46;87.66406;95879.03;;;;
2020/01/24 04:35:44;;;;;;;45;19.75;;;;;;;-2.46;87.66406;95879.03;;;;
2020/01/24 04:36:45;;;;;;;45;19.75;;;;;;;-2.46;87.66406;95879.03;;;;
2020/01/24 04:37:45;;;;;;;50.49999;20.95;;;;;;;-2.53;87.54688;95873.55;;;;
2020/01/24 04:38:46;;;;;;;50.49999;20.95;;;;;;;-2.53;87.54688;95873.55;;;;
2020/01/24 04:39:48;;;;;;;50.49999;20.95;;;;;;;-2.53;87.54688;95873.55;;;;
2020/01/24 04:40:48;;;;;;;50.49999;20.95;;;;;;;-2.53;87.54688;95873.55;;;;
2020/01/24 04:41:48;;;;;;;50.49999;20.95;;;;;;;-2.53;87.54688;95873.55;;;;
2020/01/24 04:42:49;;;;;;;50.49999;20.95;;;;;;;-2.53;87.54688;95873.55;;;;
2020/01/24 04:43:49;;;;;;;50.49999;20.95;;;;;;;-2.53;87.54688;95873.55;;;;
2020/01/24 04:44:52;;;;;;;50.49999;20.95;;;;;;;-2.53;87.54688;95873.55;;;;
2020/01/24 04:45:54;;;;;;;50.49999;20.95;;;;;;;-2.53;87.54688;95873.55;;;;
2020/01/24 04:46:56;;;;;;;50.49999;20.95;;;;;;;-2.53;87.54688;95873.55;;;;
2020/01/24 04:47:57;;;;;;;50.49999;20.95;;;;;;;-2.53;87.54688;95873.55;;;;
2020/01/24 04:48:58;;;;;;;48.35;21.35;;;;;;;-2.48;87.57715;95880.98;;;;
2020/01/24 04:50:00;;;;;;;48.35;21.35;;;;;;;-2.48;87.57715;95880.98;;;;
2020/01/24 04:51:01;;;;;;;48.35;21.35;;;;;;;-2.48;87.57715;95880.98;;;;
2020/01/24 04:52:02;;;;;;;48.35;21.35;;;;;;;-2.48;87.57715;95880.98;;;;
2020/01/24 04:53:02;;;;;;;48.35;21.35;;;;;;;-2.48;87.57715;95880.98;;;;
2020/01/24 04:54:03;;;;;;;48.35;21.35;;;;;;;-2.48;87.57715;95880.98;;;;
2020/01/24 04:55:03;;;;;;;48.35;21.35;;;;;;;-2.48;87.57715;95880.98;;;;
2020/01/24 04:56:04;;;;;;;48.35;21.35;;;;;;;-2.48;87.57715;95880.98;;;;
2020/01/24 04:57:04;;;;;;;48.35;21.35;;;;;;;-2.48;87.57715;95880.98;;;;
2020/01/24 04:58:07;;;;;;;48.35;21.35;;;;;;;-2.48;87.57715;95880.98;;;;
2020/01/24 04:59:07;;;;;;;50.4;21.65;;;;;;;-2.46;87.33301;95865.39;;;;
2020/01/24 05:00:08;;;;;;;50.4;21.65;;;;;;;-2.46;87.33301;95865.39;;;;
2020/01/24 05:01:30;;;;;;;50.4;21.65;;;;;;;-2.46;87.33301;95865.39;;;;
2020/01/24 05:02:31;;;;;;;50.4;21.65;;;;;;;-2.46;87.33301;95865.39;;;;
2020/01/24 05:03:31;;;;;;;50.4;21.65;;;;;;;-2.46;87.33301;95865.39;;;;
2020/01/24 05:04:32;;;;;;;50.4;21.65;;;;;;;-2.46;87.33301;95865.39;;;;
2020/01/24 05:05:32;;;;;;;50.4;21.65;;;;;;;-2.46;87.33301;95865.39;;;;
2020/01/24 05:06:33;;;;;;;50.4;21.65;;;;;;;-2.46;87.33301;95865.39;;;;
2020/01/24 05:07:34;;;;;;;50.4;21.65;;;;;;;-2.46;87.33301;95865.39;;;;
2020/01/24 05:08:34;;;;;;;50.4;21.65;;;;;;;-2.46;87.33301;95865.39;;;;
2020/01/24 05:09:35;;;;;;;54.45;22.5;;;;;;;-2.37;87.38086;95878.66;;;;
2020/01/24 05:10:36;;;;;;;54.45;22.5;;;;;;;-2.37;87.38086;95878.66;;;;
2020/01/24 05:11:42;;;;;;;54.45;22.5;;;;;;;-2.37;87.38086;95878.66;;;;
2020/01/24 05:12:43;;;;;;;54.45;22.5;;;;;;;-2.37;87.38086;95878.66;;;;
2020/01/24 05:13:43;;;;;;;54.45;22.5;;;;;;;-2.37;87.38086;95878.66;;;;
2020/01/24 05:14:44;;;;;;;54.45;22.5;;;;;;;-2.37;87.38086;95878.66;;;;
2020/01/24 05:15:44;;;;;;;54.45;22.5;;;;;;;-2.37;87.38086;95878.66;;;;
2020/01/24 05:16:46;;;;;;;54.45;22.5;;;;;;;-2.37;87.38086;95878.66;;;;
2020/01/24 05:17:46;;;;;;;54.45;22.5;;;;;;;-2.37;87.38086;95878.66;;;;
2020/01/24 05:18:47;;;;;;;54.45;22.5;;;;;;;-2.37;87.38086;95878.66;;;;
2020/01/24 05:19:47;;;;;;;46.5;21.65;;;;;;;-2.4;87.48047;95874.93;;;;
2020/01/24 05:20:48;;;;;;;46.5;21.65;;;;;;;-2.4;87.48047;95874.93;;;;
2020/01/24 05:21:48;;;;;;;46.5;21.65;;;;;;;-2.4;87.48047;95874.93;;;;
2020/01/24 05:22:53;;;;;;;46.5;21.65;;;;;;;-2.4;87.48047;95874.93;;;;
2020/01/24 05:23:54;;;;;;;46.5;21.65;;;;;;;-2.4;87.48047;95874.93;;;;
2020/01/24 05:24:54;;;;;;;46.5;21.65;;;;;;;-2.4;87.48047;95874.93;;;;
2020/01/24 05:25:55;;;;;;;46.5;21.65;;;;;;;-2.4;87.48047;95874.93;;;;
2020/01/24 05:26:55;;;;;;;46.5;21.65;;;;;;;-2.4;87.48047;95874.93;;;;
2020/01/24 05:27:57;;;;;;;46.5;21.65;;;;;;;-2.4;87.48047;95874.93;;;;
2020/01/24 05:28:57;;;;;;;46.5;21.65;;;;;;;-2.4;87.48047;95874.93;;;;
2020/01/24 05:29:58;;;;;;;46.5;21.65;;;;;;;-2.4;87.48047;95874.93;;;;
2020/01/24 05:31:07;;;;;;;46.65;19.9;;;;;;;-2.44;87.57422;95877.98;;;;
2020/01/24 05:32:20;;;;;;;46.65;19.9;;;;;;;-2.44;87.57422;95877.98;;;;
2020/01/24 05:33:26;;;;;;;46.65;19.9;;;;;;;-2.44;87.57422;95877.98;;;;
2020/01/24 05:34:32;;;;;;;46.65;19.9;;;;;;;-2.44;87.57422;95877.98;;;;
2020/01/24 05:35:33;;;;;;;46.65;19.9;;;;;;;-2.44;87.57422;95877.98;;;;
2020/01/24 05:36:34;;;;;;;46.65;19.9;;;;;;;-2.44;87.57422;95877.98;;;;
2020/01/24 05:37:35;;;;;;;46.65;19.9;;;;;;;-2.44;87.57422;95877.98;;;;
2020/01/24 05:38:35;;;;;;;46.65;19.9;;;;;;;-2.44;87.57422;95877.98;;;;
2020/01/24 05:39:36;;;;;;;46.65;19.9;;;;;;;-2.44;87.57422;95877.98;;;;
2020/01/24 05:40:38;;;;;;;46.65;19.9;;;;;;;-2.44;87.57422;95877.98;;;;
2020/01/24 05:41:39;;;;;;;46.1;20.7;;;;;;;-2.67;87.47656;95881.87;;;;
2020/01/24 05:42:40;;;;;;;46.1;20.7;;;;;;;-2.67;87.47656;95881.87;;;;
2020/01/24 05:43:41;;;;;;;46.1;20.7;;;;;;;-2.67;87.47656;95881.87;;;;
2020/01/24 05:44:41;;;;;;;46.1;20.7;;;;;;;-2.67;87.47656;95881.87;;;;
2020/01/24 05:45:42;;;;;;;46.1;20.7;;;;;;;-2.67;87.47656;95881.87;;;;
2020/01/24 05:46:44;;;;;;;46.1;20.7;;;;;;;-2.67;87.47656;95881.87;;;;
2020/01/24 05:47:49;;;;;;;46.1;20.7;;;;;;;-2.67;87.47656;95881.87;;;;
2020/01/24 05:48:51;;;;;;;46.1;20.7;;;;;;;-2.67;87.47656;95881.87;;;;
2020/01/24 05:49:53;;;;;;;46.1;20.7;;;;;;;-2.67;87.47656;95881.87;;;;
2020/01/24 05:50:59;;;;;;;46.1;20.7;;;;;;;-2.67;87.47656;95881.87;;;;
2020/01/24 05:52:00;;;;;;;44.55;19.5;;;;;;;-2.91;87.84863;95878.39;;;;
2020/01/24 05:53:00;;;;;;;44.55;19.5;;;;;;;-2.91;87.84863;95878.39;;;;
2020/01/24 05:54:01;;;;;;;44.55;19.5;;;;;;;-2.91;87.84863;95878.39;;;;
2020/01/24 05:55:01;;;;;;;44.55;19.5;;;;;;;-2.91;87.84863;95878.39;;;;
2020/01/24 05:56:02;;;;;;;44.55;19.5;;;;;;;-2.91;87.84863;95878.39;;;;
2020/01/24 05:57:03;;;;;;;44.55;19.5;;;;;;;-2.91;87.84863;95878.39;;;;
2020/01/24 05:58:03;;;;;;;44.55;19.5;;;;;;;-2.91;87.84863;95878.39;;;;
2020/01/24 05:59:03;;;;;;;44.55;19.5;;;;;;;-2.91;87.84863;95878.39;;;;
2020/01/24 06:00:04;;;;;;;44.55;19.5;;;;;;;-2.91;87.84863;95878.39;;;;
2020/01/24 06:01:23;;;;;;;44.55;19.5;;;;;;;-2.91;87.84863;95878.39;;;;
2020/01/24 06:02:23;;;;;;;39.55001;19.3;;;;;;;-3.25;87.79102;95883.26;;;;
2020/01/24 06:03:23;;;;;;;39.55001;19.3;;;;;;;-3.25;87.79102;95883.26;;;;
2020/01/24 06:04:24;;;;;;;39.55001;19.3;;;;;;;-3.25;87.79102;95883.26;;;;
2020/01/24 06:05:24;;;;;;;39.55001;19.3;;;;;;;-3.25;87.79102;95883.26;;;;
2020/01/24 06:06:25;;;;;;;39.55001;19.3;;;;;;;-3.25;87.79102;95883.26;;;;
2020/01/24 06:07:25;;;;;;;39.55001;19.3;;;;;;;-3.25;87.79102;95883.26;;;;